createdAt,value
2022-09-10T00:01:59.747Z,9.18
2022-09-10T00:04:28.186Z,10.43
2022-09-10T00:06:55.766Z,10.25
2022-09-10T00:09:23.759Z,10.80
2022-09-10T00:11:50.995Z,10.88
2022-09-10T00:14:23.300Z,10.27
2022-09-10T00:16:50.831Z,10.63
2022-09-10T00:19:19.114Z,9.93
2022-09-10T00:21:45.934Z,10.75
2022-09-10T00:24:13.510Z,11.38
2022-09-10T00:26:41.728Z,11.10
2022-09-10T00:29:12.245Z,10.35
2022-09-10T00:31:39.911Z,10.13
2022-09-10T00:34:07.082Z,10.48
2022-09-10T00:36:39.824Z,10.05
2022-09-10T00:39:10.939Z,10.05
2022-09-10T00:41:40.857Z,9.38
2022-09-10T00:44:42.800Z,10.32
2022-09-10T00:47:26.820Z,9.63
2022-09-10T00:49:58.532Z,9.55
2022-09-10T00:52:25.435Z,9.32
2022-09-10T00:54:52.371Z,9.35
2022-09-10T00:57:21.887Z,10.32
2022-09-10T00:59:59.382Z,9.18
2022-09-10T01:02:26.255Z,10.30
2022-09-10T01:04:55.458Z,9.20
2022-09-10T01:07:24.210Z,9.45
2022-09-10T01:09:51.385Z,9.95
2022-09-10T01:12:36.991Z,9.82
2022-09-10T01:15:22.091Z,10.02
2022-09-10T01:18:05.552Z,9.40
2022-09-10T01:20:56.684Z,9.35
2022-09-10T01:23:41.585Z,8.50
2022-09-10T01:26:25.400Z,9.50
2022-09-10T01:29:02.619Z,9.13
2022-09-10T01:31:36.253Z,9.45
2022-09-10T01:34:16.919Z,9.20
2022-09-10T01:36:48.257Z,9.30
2022-09-10T01:39:17.843Z,8.70
2022-09-10T01:44:45.047Z,9.10
2022-09-10T01:47:24.700Z,9.23
2022-09-10T01:50:24.252Z,9.07
2022-09-10T01:53:18.109Z,8.77
2022-09-10T01:55:54.262Z,8.88
2022-09-10T01:58:41.614Z,8.85
2022-09-10T02:01:32.832Z,8.13
2022-09-10T02:04:03.844Z,8.45
2022-09-10T02:06:36.135Z,9.05
2022-09-10T02:09:05.388Z,8.15
2022-09-10T02:11:53.453Z,9.00
2022-09-10T02:14:21.771Z,8.65
2022-09-10T02:16:55.137Z,9.40
2022-09-10T02:19:21.862Z,10.00
2022-09-10T02:21:49.017Z,8.60
2022-09-10T02:24:15.743Z,9.10
2022-09-10T02:26:44.317Z,9.02
2022-09-10T02:29:13.865Z,7.72
2022-09-10T02:31:41.297Z,8.65
2022-09-10T02:34:08.405Z,9.55
2022-09-10T02:36:35.955Z,9.70
2022-09-10T02:39:04.811Z,9.77
2022-09-10T02:41:34.239Z,9.32
2022-09-10T02:44:02.406Z,9.60
2022-09-10T02:46:31.361Z,9.60
2022-09-10T02:48:58.542Z,9.07
2022-09-10T02:51:25.833Z,9.05
2022-09-10T02:53:52.797Z,9.20
2022-09-10T02:56:22.169Z,9.00
2022-09-10T02:58:48.910Z,7.95
2022-09-10T03:01:19.554Z,8.05
2022-09-10T03:03:56.976Z,8.00
2022-09-10T03:06:29.581Z,7.47
2022-09-10T03:08:57.683Z,7.60
2022-09-10T03:11:25.389Z,7.63
2022-09-10T03:13:52.269Z,6.93
2022-09-10T03:16:19.628Z,7.43
2022-09-10T03:18:46.604Z,7.50
2022-09-10T03:21:19.036Z,7.20
2022-09-10T03:23:48.945Z,7.43
2022-09-10T03:26:17.581Z,7.95
2022-09-10T03:28:45.568Z,7.40
2022-09-10T03:31:13.853Z,7.10
2022-09-10T03:33:41.772Z,7.53
2022-09-10T03:36:15.585Z,8.25
2022-09-10T03:38:42.724Z,7.75
2022-09-10T03:41:09.916Z,8.30
2022-09-10T03:43:36.630Z,7.40
2022-09-10T03:46:03.728Z,7.80
2022-09-10T03:48:30.461Z,7.38
2022-09-10T03:50:57.364Z,7.10
2022-09-10T03:53:24.157Z,6.95
2022-09-10T03:55:52.101Z,7.03
2022-09-10T03:58:19.483Z,6.57
2022-09-10T04:00:46.641Z,7.32
2022-09-10T04:03:16.830Z,8.07
2022-09-10T04:05:46.623Z,7.30
2022-09-10T04:08:14.481Z,7.35
2022-09-10T04:10:42.593Z,7.32
2022-09-10T04:13:09.578Z,7.38
2022-09-10T04:15:37.568Z,7.68
2022-09-10T04:18:06.134Z,7.97
2022-09-10T04:20:33.722Z,7.68
2022-09-10T04:23:06.163Z,8.23
2022-09-10T04:25:43.015Z,6.97
2022-09-10T04:28:09.696Z,7.30
2022-09-10T04:30:52.735Z,7.65
2022-09-10T04:33:19.589Z,7.80
2022-09-10T04:36:03.505Z,7.50
2022-09-10T04:38:31.164Z,6.90
2022-09-10T04:40:59.032Z,8.60
2022-09-10T04:43:27.917Z,8.82
2022-09-10T04:45:55.683Z,8.98
2022-09-10T04:48:23.634Z,9.05
2022-09-10T04:51:14.823Z,9.00
2022-09-10T04:53:39.153Z,9.27
2022-09-10T04:56:06.615Z,10.77
2022-09-10T04:58:38.469Z,10.02
2022-09-10T05:01:05.857Z,9.85
2022-09-10T05:03:32.723Z,10.93
2022-09-10T05:06:00.582Z,10.13
2022-09-10T05:08:27.487Z,10.75
2022-09-10T05:10:54.355Z,11.02
2022-09-10T05:13:21.128Z,11.38
2022-09-10T05:15:49.290Z,11.23
2022-09-10T05:18:16.851Z,10.98
2022-09-10T05:20:44.939Z,12.00
2022-09-10T05:23:12.831Z,10.40
2022-09-10T05:25:39.545Z,10.25
2022-09-10T05:28:06.239Z,9.93
2022-09-10T05:30:33.204Z,10.20
2022-09-10T05:33:01.430Z,9.30
2022-09-10T05:35:29.210Z,10.63
2022-09-10T05:38:01.098Z,8.90
2022-09-10T05:40:29.354Z,10.23
2022-09-10T05:42:56.097Z,8.73
2022-09-10T05:45:23.593Z,8.40
2022-09-10T05:47:50.541Z,8.38
2022-09-10T05:50:17.929Z,8.13
2022-09-10T05:52:45.010Z,8.25
2022-09-10T05:55:12.532Z,6.95
2022-09-10T05:57:40.465Z,6.90
2022-09-10T06:00:09.182Z,7.53
2022-09-10T06:02:36.780Z,7.50
2022-09-10T06:05:03.924Z,6.28
2022-09-10T06:07:31.601Z,6.78
2022-09-10T06:09:58.351Z,7.03
2022-09-10T06:12:25.159Z,6.25
2022-09-10T06:14:52.778Z,6.97
2022-09-10T06:17:20.078Z,6.38
2022-09-10T06:19:47.145Z,6.90
2022-09-10T06:22:14.602Z,6.45
2022-09-10T06:24:41.367Z,6.85
2022-09-10T06:27:08.642Z,6.45
2022-09-10T06:29:38.738Z,6.10
2022-09-10T06:32:05.724Z,6.68
2022-09-10T06:34:32.695Z,5.80
2022-09-10T06:36:59.541Z,5.63
2022-09-10T06:39:28.194Z,5.40
2022-09-10T06:41:54.939Z,5.28
2022-09-10T06:44:22.488Z,5.20
2022-09-10T06:47:50.888Z,4.90
2022-09-10T06:49:43.096Z,6.07
2022-09-10T06:52:11.725Z,5.63
2022-09-10T06:54:38.504Z,5.38
2022-09-10T06:57:05.552Z,5.97
2022-09-10T06:59:32.240Z,5.80
2022-09-10T07:02:00.564Z,5.88
2022-09-10T07:04:27.263Z,6.45
2022-09-10T07:06:54.300Z,6.38
2022-09-10T07:09:21.390Z,5.97
2022-09-10T07:11:48.019Z,6.28
2022-09-10T07:14:15.901Z,5.47
2022-09-10T07:16:44.712Z,6.35
2022-09-10T07:19:15.429Z,6.00
2022-09-10T07:21:42.237Z,5.43
2022-09-10T07:24:12.181Z,6.20
2022-09-10T07:26:39.293Z,5.22
2022-09-10T07:29:06.024Z,5.55
2022-09-10T07:31:34.898Z,5.88
2022-09-10T07:34:03.308Z,5.93
2022-09-10T07:36:30.442Z,6.40
2022-09-10T07:38:58.939Z,6.10
2022-09-10T07:41:30.104Z,5.68
2022-09-10T07:43:57.392Z,5.20
2022-09-10T07:46:25.657Z,4.72
2022-09-10T07:48:58.302Z,4.80
2022-09-10T07:51:26.814Z,4.25
2022-09-10T07:53:55.807Z,4.30
2022-09-10T07:56:23.544Z,4.40
2022-09-10T07:58:51.526Z,4.18
2022-09-10T08:01:19.756Z,4.50
2022-09-10T08:03:46.958Z,4.10
2022-09-10T08:06:14.265Z,3.55
2022-09-10T08:08:41.370Z,4.30
2022-09-10T08:11:11.946Z,3.55
2022-09-10T08:13:45.114Z,4.05
2022-09-10T08:16:15.467Z,4.55
2022-09-10T08:18:43.785Z,5.10
2022-09-10T08:21:11.422Z,4.40
2022-09-10T08:23:41.470Z,5.07
2022-09-10T08:26:08.659Z,4.88
2022-09-10T08:28:36.795Z,4.70
2022-09-10T08:31:11.656Z,5.15
2022-09-10T08:33:39.828Z,5.33
2022-09-10T08:36:12.209Z,5.00
2022-09-10T08:38:40.209Z,5.00
2022-09-10T08:41:12.289Z,4.55
2022-09-10T08:43:58.279Z,4.60
2022-09-10T08:46:40.246Z,4.32
2022-09-10T08:49:36.066Z,4.22
2022-09-10T08:52:32.431Z,4.28
2022-09-10T08:55:06.469Z,4.65
2022-09-10T08:57:39.411Z,4.65
2022-09-10T09:00:14.098Z,4.80
2022-09-10T09:02:59.211Z,4.82
2022-09-10T09:05:28.241Z,5.50
2022-09-10T09:08:03.574Z,5.10
2022-09-10T09:11:05.829Z,5.85
2022-09-10T09:13:44.394Z,6.40
2022-09-10T09:16:44.859Z,6.43
2022-09-10T09:19:46.215Z,6.28
2022-09-10T09:22:20.252Z,7.22
2022-09-10T09:24:58.043Z,6.38
2022-09-10T09:27:30.155Z,6.75
2022-09-10T09:30:03.270Z,7.30
2022-09-10T09:32:40.866Z,6.25
2022-09-10T09:35:07.685Z,7.03
2022-09-10T09:37:37.963Z,6.72
2022-09-10T09:40:37.952Z,7.32
2022-09-10T09:43:32.535Z,7.03
2022-09-10T09:46:00.645Z,7.20
2022-09-10T09:48:34.852Z,7.07
2022-09-10T09:51:02.773Z,7.20
2022-09-10T09:53:31.124Z,7.25
2022-09-10T09:56:02.396Z,7.07
2022-09-10T09:58:32.250Z,7.32
2022-09-10T10:01:05.258Z,6.78
2022-09-10T10:03:38.310Z,7.47
2022-09-10T10:06:08.013Z,7.35
2022-09-10T10:08:54.351Z,7.45
2022-09-10T10:11:22.403Z,7.75
2022-09-10T10:13:51.735Z,8.30
2022-09-10T10:16:36.631Z,7.32
2022-09-10T10:19:23.640Z,7.38
2022-09-10T10:21:50.378Z,7.38
2022-09-10T10:24:34.255Z,7.15
2022-09-10T10:27:01.163Z,6.22
2022-09-10T10:29:28.220Z,6.22
2022-09-10T10:31:56.325Z,6.78
2022-09-10T10:34:53.138Z,5.75
2022-09-10T10:37:50.924Z,5.45
2022-09-10T10:40:32.209Z,6.05
2022-09-10T10:42:59.293Z,5.35
2022-09-10T10:45:37.225Z,5.50
2022-09-10T10:48:19.081Z,5.35
2022-09-10T10:51:11.963Z,4.13
2022-09-10T10:53:56.574Z,5.03
2022-09-10T10:56:37.980Z,5.07
2022-09-10T10:59:24.871Z,5.43
2022-09-10T11:02:01.933Z,5.90
2022-09-10T11:04:44.129Z,5.65
2022-09-10T11:07:31.173Z,5.65
2022-09-10T11:10:11.702Z,5.90
2022-09-10T11:13:01.276Z,6.05
2022-09-10T11:16:10.036Z,6.57
2022-09-10T11:18:43.952Z,5.90
2022-09-10T11:21:31.412Z,6.65
2022-09-10T11:24:03.804Z,7.20
2022-09-10T11:26:39.860Z,6.82
2022-09-10T11:29:35.903Z,6.57
2022-09-10T11:32:18.431Z,6.07
2022-09-10T11:35:03.796Z,5.80
2022-09-10T11:37:46.340Z,4.43
2022-09-10T11:40:33.187Z,5.07
2022-09-10T11:43:07.394Z,4.65
2022-09-10T11:45:53.421Z,4.35
2022-09-10T11:48:31.772Z,4.00
2022-09-10T11:51:02.831Z,4.20
2022-09-10T11:53:30.505Z,3.67
2022-09-10T11:55:59.886Z,4.50
2022-09-10T11:58:43.663Z,4.50
2022-09-10T12:01:31.896Z,3.92
2022-09-10T12:04:29.435Z,6.68
2022-09-10T12:07:14.747Z,4.00
2022-09-10T12:09:47.422Z,3.65
2022-09-10T12:12:17.067Z,4.07
2022-09-10T12:14:43.822Z,3.92
2022-09-10T12:17:27.448Z,4.28
2022-09-10T12:19:58.457Z,4.10
2022-09-10T12:22:37.002Z,4.25
2022-09-10T12:25:08.766Z,4.25
2022-09-10T12:27:44.796Z,3.65
2022-09-10T12:30:30.864Z,3.28
2022-09-10T12:33:00.690Z,2.58
2022-09-10T12:35:32.971Z,2.75
2022-09-10T12:38:37.527Z,2.90
2022-09-10T12:41:08.902Z,3.25
2022-09-10T12:43:41.681Z,4.45
2022-09-10T12:46:14.369Z,3.70
2022-09-10T12:48:47.286Z,3.38
2022-09-10T12:51:14.034Z,3.80
2022-09-10T12:53:44.081Z,3.55
2022-09-10T12:56:40.750Z,3.30
2022-09-10T12:59:19.418Z,2.63
2022-09-10T13:01:49.288Z,3.28
2022-09-10T13:04:29.323Z,2.60
2022-09-10T13:07:20.683Z,3.60
2022-09-10T13:09:58.409Z,3.15
2022-09-10T13:12:26.466Z,2.80
2022-09-10T13:14:57.662Z,2.95
2022-09-10T13:18:01.363Z,3.00
2022-09-10T13:20:32.352Z,2.40
2022-09-10T13:23:09.456Z,2.80
2022-09-10T13:25:37.119Z,2.10
2022-09-10T13:28:37.061Z,2.53
2022-09-10T13:31:13.238Z,2.55
2022-09-10T13:33:57.895Z,2.67
2022-09-10T13:36:33.216Z,2.40
2022-09-10T13:39:08.749Z,2.60
2022-09-10T13:42:03.310Z,2.90
2022-09-10T13:45:11.583Z,3.17
2022-09-10T13:47:47.561Z,3.42
2022-09-10T13:50:47.806Z,3.65
2022-09-10T13:53:17.505Z,3.33
2022-09-10T13:56:09.283Z,3.28
2022-09-10T13:58:47.233Z,3.03
2022-09-10T14:01:13.981Z,2.70
2022-09-10T14:03:40.960Z,2.17
2022-09-10T14:06:07.928Z,2.20
2022-09-10T14:08:49.529Z,1.90
2022-09-10T14:11:24.266Z,2.10
2022-09-10T14:13:59.807Z,2.13
2022-09-10T14:16:34.395Z,2.30
2022-09-10T14:19:03.878Z,1.90
2022-09-10T14:21:32.288Z,1.85
2022-09-10T14:24:00.035Z,1.83
2022-09-10T14:26:30.374Z,2.03
2022-09-10T14:29:00.061Z,1.52
2022-09-10T14:31:27.226Z,2.10
2022-09-10T14:33:55.999Z,1.50
2022-09-10T14:36:31.431Z,1.75
2022-09-10T14:39:20.226Z,1.98
2022-09-10T14:41:47.808Z,2.38
2022-09-10T14:44:23.884Z,2.13
2022-09-10T14:47:08.609Z,2.10
2022-09-10T14:49:39.011Z,2.30
2022-09-10T14:52:06.687Z,1.95
2022-09-10T14:54:34.952Z,2.13
2022-09-10T14:57:03.927Z,2.25
2022-09-10T14:59:38.913Z,2.45
2022-09-10T15:02:23.018Z,2.70
2022-09-10T15:04:50.919Z,2.63
2022-09-10T15:07:17.693Z,2.72
2022-09-10T15:09:44.855Z,2.97
2022-09-10T15:12:32.102Z,3.25
2022-09-10T15:14:59.255Z,3.05
2022-09-10T15:17:27.001Z,3.05
2022-09-10T15:19:56.015Z,3.20
2022-09-10T15:22:25.390Z,3.08
2022-09-10T15:25:09.208Z,3.08
2022-09-10T15:27:39.543Z,3.45
2022-09-10T15:30:07.025Z,3.05
2022-09-10T15:32:33.831Z,2.80
2022-09-10T15:35:01.251Z,3.30
2022-09-10T15:37:28.145Z,3.33
2022-09-10T15:39:54.968Z,3.55
2022-09-10T15:42:22.003Z,2.88
2022-09-10T15:44:48.812Z,3.70
2022-09-10T15:47:15.697Z,3.17
2022-09-10T15:49:42.531Z,3.00
2022-09-10T15:52:10.063Z,3.60
2022-09-10T15:54:36.804Z,2.95
2022-09-10T15:57:03.759Z,3.10
2022-09-10T15:59:30.451Z,4.78
2022-09-10T16:01:57.135Z,3.40
2022-09-10T16:04:25.183Z,3.30
2022-09-10T16:06:52.190Z,3.28
2022-09-10T16:09:18.964Z,3.03
2022-09-10T16:11:46.211Z,3.00
2022-09-10T16:14:16.812Z,3.20
2022-09-10T16:16:43.483Z,3.20
2022-09-10T16:19:13.086Z,3.15
2022-09-10T16:21:39.895Z,3.15
2022-09-10T16:24:07.225Z,3.70
2022-09-10T16:26:39.555Z,3.53
2022-09-10T16:29:15.126Z,3.45
2022-09-10T16:31:43.612Z,3.33
2022-09-10T16:34:12.356Z,3.25
2022-09-10T16:36:39.767Z,3.47
2022-09-10T16:39:12.994Z,4.03
2022-09-10T16:41:41.732Z,3.20
2022-09-10T16:44:09.395Z,3.80
2022-09-10T16:46:36.194Z,3.92
2022-09-10T16:49:03.036Z,3.95
2022-09-10T16:51:29.815Z,3.80
2022-09-10T16:54:02.547Z,3.47
2022-09-10T16:56:33.689Z,4.10
2022-09-10T16:59:00.385Z,5.03
2022-09-10T17:01:28.278Z,4.63
2022-09-10T17:03:55.407Z,4.10
2022-09-10T17:06:27.514Z,4.40
2022-09-10T17:08:57.216Z,3.85
2022-09-10T17:11:29.245Z,4.30
2022-09-10T17:13:58.884Z,4.60
2022-09-10T17:16:34.479Z,3.97
2022-09-10T17:21:35.880Z,4.07
2022-09-10T17:24:05.277Z,4.95
2022-09-10T17:26:32.895Z,4.07
2022-09-10T17:29:02.177Z,4.60
2022-09-10T17:31:30.081Z,4.30
2022-09-10T17:33:57.951Z,5.00
2022-09-10T17:36:25.732Z,4.75
2022-09-10T17:38:53.888Z,4.80
2022-09-10T17:41:22.421Z,4.85
2022-09-10T17:43:49.951Z,4.55
2022-09-10T17:46:19.109Z,4.28
2022-09-10T17:48:46.147Z,5.00
2022-09-10T17:51:18.091Z,5.05
2022-09-10T17:53:45.199Z,5.38
2022-09-10T17:56:14.324Z,5.70
2022-09-10T17:58:41.901Z,5.63
2022-09-10T18:01:12.601Z,5.38
2022-09-10T18:03:40.831Z,5.70
2022-09-10T18:06:10.747Z,5.43
2022-09-10T18:08:39.428Z,5.03
2022-09-10T18:11:09.794Z,6.38
2022-09-10T18:13:37.516Z,4.70
2022-09-10T18:16:09.715Z,4.70
2022-09-10T18:18:37.513Z,6.18
2022-09-10T18:21:15.262Z,5.20
2022-09-10T18:23:44.342Z,5.00
2022-09-10T18:26:14.470Z,5.55
2022-09-10T18:28:42.630Z,5.45
2022-09-10T18:31:10.550Z,5.45
2022-09-10T18:33:39.415Z,5.82
2022-09-10T18:36:14.180Z,5.95
2022-09-10T18:38:42.774Z,5.20
2022-09-10T18:41:23.366Z,5.78
2022-09-10T18:43:51.386Z,5.40
2022-09-10T18:46:20.095Z,5.90
2022-09-10T18:48:48.231Z,5.60
2022-09-10T18:51:17.766Z,5.72
2022-09-10T18:53:45.702Z,6.13
2022-09-10T18:56:23.534Z,5.80
2022-09-10T18:58:59.409Z,6.20
2022-09-10T19:01:28.998Z,6.50
2022-09-10T19:03:57.619Z,6.50
2022-09-10T19:06:27.350Z,6.13
2022-09-10T19:08:57.847Z,6.35
2022-09-10T19:11:29.436Z,6.45
2022-09-10T19:13:57.384Z,6.80
2022-09-10T19:16:27.374Z,7.65
2022-09-10T19:18:59.378Z,7.18
2022-09-10T19:21:28.749Z,7.10
2022-09-10T19:24:01.651Z,8.48
2022-09-10T19:26:31.005Z,8.23
2022-09-10T19:28:59.755Z,9.43
2022-09-10T19:31:28.817Z,8.75
2022-09-10T19:33:58.117Z,8.57
2022-09-10T19:36:27.539Z,8.57
2022-09-10T19:38:55.016Z,8.68
2022-09-10T19:41:22.687Z,8.27
2022-09-10T19:43:51.584Z,8.07
2022-09-10T19:46:19.995Z,7.80
2022-09-10T19:48:48.244Z,8.60
2022-09-10T19:51:19.090Z,8.80
2022-09-10T19:53:46.589Z,8.55
2022-09-10T19:56:20.229Z,8.27
2022-09-10T19:58:49.893Z,8.10
2022-09-10T20:01:25.072Z,9.82
2022-09-10T20:03:53.595Z,10.05
2022-09-10T20:06:25.496Z,9.73
2022-09-10T20:08:52.828Z,9.70
2022-09-10T20:11:26.866Z,9.05
2022-09-10T20:13:56.637Z,9.90
2022-09-10T20:16:23.867Z,9.70
2022-09-10T20:18:50.672Z,9.27
2022-09-10T20:21:24.429Z,9.75
2022-09-10T20:23:55.741Z,9.70
2022-09-10T20:26:31.548Z,9.82
2022-09-10T20:29:06.521Z,10.02
2022-09-10T20:31:35.987Z,9.50
2022-09-10T20:34:07.706Z,9.32
2022-09-10T20:36:35.958Z,10.13
2022-09-10T20:39:02.869Z,10.18
2022-09-10T20:41:32.877Z,9.60
2022-09-10T20:44:01.388Z,10.68
2022-09-10T20:46:30.425Z,9.20
2022-09-10T20:49:03.309Z,9.82
2022-09-10T20:51:32.842Z,9.90
2022-09-10T20:53:59.605Z,9.98
2022-09-10T20:56:26.798Z,9.88
2022-09-10T20:58:53.691Z,9.02
2022-09-10T21:01:25.435Z,9.20
2022-09-10T21:03:54.290Z,10.45
2022-09-10T21:06:25.333Z,9.43
2022-09-10T21:08:52.059Z,8.82
2022-09-10T21:11:20.809Z,9.70
2022-09-10T21:13:54.989Z,8.85
2022-09-10T21:16:33.695Z,9.88
2022-09-10T21:19:02.839Z,9.60
2022-09-10T21:21:31.677Z,9.63
2022-09-10T21:24:13.292Z,9.45
2022-09-10T21:26:41.914Z,9.60
2022-09-10T21:29:15.360Z,10.55
2022-09-10T21:31:42.978Z,10.15
2022-09-10T21:34:10.202Z,11.27
2022-09-10T21:36:38.615Z,10.27
2022-09-10T21:39:08.101Z,10.77
2022-09-10T21:41:37.398Z,10.90
2022-09-10T21:44:08.585Z,11.07
2022-09-10T21:46:36.465Z,11.20
2022-09-10T21:49:03.620Z,10.52
2022-09-10T21:51:30.558Z,11.52
2022-09-10T21:53:59.267Z,10.73
2022-09-10T21:56:28.847Z,10.60
2022-09-10T21:58:57.939Z,11.75
2022-09-10T22:01:27.844Z,11.07
2022-09-10T22:04:00.251Z,11.98
2022-09-10T22:06:30.125Z,11.65
2022-09-10T22:09:06.894Z,12.48
2022-09-10T22:11:46.917Z,11.57
2022-09-10T22:14:19.183Z,12.02
2022-09-10T22:16:45.925Z,11.60
2022-09-10T22:19:16.491Z,12.27
2022-09-10T22:21:43.356Z,12.15
2022-09-10T22:24:11.887Z,12.13
2022-09-10T22:26:44.483Z,13.02
2022-09-10T22:29:12.720Z,12.38
2022-09-10T22:31:39.478Z,13.05
2022-09-10T22:34:15.371Z,12.43
2022-09-10T22:36:44.572Z,11.95
2022-09-10T22:39:14.855Z,12.73
2022-09-10T22:41:42.448Z,12.70
2022-09-10T22:44:09.867Z,13.20
2022-09-10T22:46:37.900Z,13.13
2022-09-10T22:49:06.373Z,13.60
2022-09-10T22:51:36.163Z,12.65
2022-09-10T22:54:04.554Z,13.95
2022-09-10T22:56:31.291Z,13.30
2022-09-10T22:58:59.638Z,12.95
2022-09-10T23:01:32.550Z,14.23
2022-09-10T23:04:01.339Z,13.43
2022-09-10T23:06:31.194Z,12.95
2022-09-10T23:09:05.002Z,13.52
2022-09-10T23:11:32.929Z,14.00
2022-09-10T23:14:03.908Z,12.75
2022-09-10T23:16:42.329Z,12.68
2022-09-10T23:19:15.656Z,13.05
2022-09-10T23:21:45.651Z,14.27
2022-09-10T23:24:15.133Z,12.23
2022-09-10T23:26:43.072Z,15.65
2022-09-10T23:29:10.649Z,13.43
2022-09-10T23:31:39.557Z,14.00
2022-09-10T23:34:09.927Z,13.27
2022-09-10T23:36:40.390Z,13.52
2022-09-10T23:39:11.070Z,14.30
2022-09-10T23:41:39.170Z,14.48
2022-09-10T23:44:06.176Z,14.05
2022-09-10T23:46:33.109Z,14.88
2022-09-10T23:49:00.466Z,16.20
2022-09-10T23:51:27.803Z,14.70
2022-09-10T23:53:56.061Z,16.70
2022-09-10T23:56:25.641Z,15.45
2022-09-10T23:58:52.768Z,15.75
